DAH6170 DAAG-DABB
Flight info
| Callsign | DAH6170 |
|---|---|
| Flight time | 0h 31m |
| Altitude | 23000 |
| Route | BJA1B BJA A411 ANB |
| Aircraft | B736/M-SDE2E3FGHIRWXY/LB1 |
Departure
| Time | 2026-04-23 05:46 |
|---|---|
| Airport | Houari Boumediene Airport (DAAG) |
Arrival
| Time | 2026-04-23 06:17 |
|---|---|
| Airport | Annaba Rabah Bitat Airport (DABB) |
| Time | Latitude | Longitude | Altitude | Speed | Heading |
|---|---|---|---|---|---|
| 2026-04-23 05:27 | 36.69684 | 3.20781 | 41 ft | 0 kts | 6° |
| 2026-04-23 05:36 | 36.69677 | 3.20780 | 60 ft | 4 kts | 6° |
| 2026-04-23 05:37 | 36.69650 | 3.20775 | 64 ft | 4 kts | 12° |
| 2026-04-23 05:37 | 36.69624 | 3.20766 | 66 ft | 4 kts | 23° |
| 2026-04-23 05:37 | 36.69603 | 3.20749 | 63 ft | 4 kts | 58° |
| 2026-04-23 05:37 | 36.69598 | 3.20732 | 62 ft | 1 kts | 90° |
| 2026-04-23 05:38 | 36.69598 | 3.20730 | 61 ft | 0 kts | 90° |
| 2026-04-23 05:41 | 36.69598 | 3.20748 | 69 ft | 4 kts | 90° |
| 2026-04-23 05:41 | 36.69596 | 3.20790 | 69 ft | 5 kts | 109° |
| 2026-04-23 05:41 | 36.69564 | 3.20808 | 64 ft | 5 kts | 165° |
| 2026-04-23 05:42 | 36.69530 | 3.20822 | 64 ft | 5 kts | 160° |
| 2026-04-23 05:42 | 36.69497 | 3.20836 | 69 ft | 5 kts | 160° |
| 2026-04-23 05:42 | 36.69464 | 3.20851 | 63 ft | 5 kts | 160° |
| 2026-04-23 05:42 | 36.69432 | 3.20864 | 69 ft | 5 kts | 163° |
| 2026-04-23 05:43 | 36.69390 | 3.20880 | 69 ft | 8 kts | 161° |
| 2026-04-23 05:43 | 36.69335 | 3.20903 | 63 ft | 9 kts | 161° |
| 2026-04-23 05:43 | 36.69279 | 3.20927 | 66 ft | 8 kts | 161° |
| 2026-04-23 05:43 | 36.69226 | 3.20949 | 70 ft | 4 kts | 161° |
| 2026-04-23 05:44 | 36.69224 | 3.20950 | 71 ft | 3 kts | 161° |
| 2026-04-23 05:44 | 36.69176 | 3.20970 | 65 ft | 8 kts | 161° |
| 2026-04-23 05:44 | 36.69124 | 3.20950 | 70 ft | 8 kts | 231° |
| 2026-04-23 05:44 | 36.69115 | 3.20881 | 75 ft | 8 kts | 271° |
| 2026-04-23 05:45 | 36.69117 | 3.20793 | 70 ft | 15 kts | 271° |
| 2026-04-23 05:45 | 36.69126 | 3.20393 | 76 ft | 83 kts | 272° |
| 2026-04-23 05:45 | 36.69150 | 3.19386 | 76 ft | 146 kts | 272° |
| 2026-04-23 05:45 | 36.69186 | 3.18093 | 640 ft | 149 kts | 269° |
| 2026-04-23 05:46 | 36.69214 | 3.16765 | 1210 ft | 157 kts | 268° |
| 2026-04-23 05:46 | 36.69225 | 3.15422 | 1873 ft | 156 kts | 269° |
| 2026-04-23 05:46 | 36.69258 | 3.13997 | 2217 ft | 176 kts | 271° |
| 2026-04-23 05:46 | 36.69283 | 3.12387 | 2599 ft | 193 kts | 267° |
| 2026-04-23 05:47 | 36.69291 | 3.10701 | 3247 ft | 193 kts | 270° |
| 2026-04-23 05:47 | 36.69184 | 3.09011 | 3648 ft | 206 kts | 243° |
| 2026-04-23 05:47 | 36.68161 | 3.07737 | 3817 ft | 221 kts | 200° |
| 2026-04-23 05:47 | 36.66596 | 3.07657 | 3985 ft | 240 kts | 161° |
| 2026-04-23 05:48 | 36.65161 | 3.08848 | 4276 ft | 258 kts | 135° |
| 2026-04-23 05:48 | 36.64123 | 3.10702 | 4951 ft | 266 kts | 112° |
| 2026-04-23 05:48 | 36.63862 | 3.13116 | 5729 ft | 272 kts | 89° |
| 2026-04-23 05:48 | 36.64439 | 3.22015 | 8602 ft | 285 kts | 86° |
| 2026-04-23 05:49 | 36.64544 | 3.26645 | 10166 ft | 293 kts | 86° |
| 2026-04-23 05:49 | 36.64574 | 3.29234 | 10718 ft | 308 kts | 87° |
| 2026-04-23 05:49 | 36.64613 | 3.31993 | 11008 ft | 331 kts | 86° |
| 2026-04-23 05:49 | 36.64714 | 3.37751 | 11022 ft | 351 kts | 86° |
| 2026-04-23 05:50 | 36.64953 | 3.50039 | 11044 ft | 357 kts | 86° |
| 2026-04-23 05:50 | 36.65121 | 3.58841 | 11036 ft | 356 kts | 86° |
| 2026-04-23 05:50 | 36.65500 | 3.68112 | 11012 ft | 347 kts | 84° |
| 2026-04-23 05:50 | 36.66114 | 3.79722 | 11321 ft | 367 kts | 84° |
| 2026-04-23 05:51 | 36.66450 | 3.86501 | 13403 ft | 363 kts | 84° |
| 2026-04-23 05:51 | 36.67056 | 3.99406 | 16305 ft | 385 kts | 84° |
| 2026-04-23 05:51 | 36.67676 | 4.13103 | 19033 ft | 405 kts | 84° |
| 2026-04-23 05:51 | 36.68316 | 4.27479 | 21588 ft | 422 kts | 83° |
| 2026-04-23 05:52 | 36.68523 | 4.32258 | 22423 ft | 426 kts | 83° |
| 2026-04-23 05:52 | 36.73653 | 5.46648 | 26474 ft | 493 kts | 83° |
| 2026-04-23 05:52 | 36.75246 | 5.77438 | 26284 ft | 487 kts | 80° |
| 2026-04-23 05:52 | 36.75846 | 5.81475 | 25978 ft | 463 kts | 68° |
| 2026-04-23 05:53 | 36.77199 | 5.84986 | 25752 ft | 438 kts | 57° |
| 2026-04-23 05:53 | 36.78574 | 5.88314 | 25493 ft | 427 kts | 64° |
| 2026-04-23 05:53 | 36.79495 | 5.91796 | 25243 ft | 418 kts | 71° |
| 2026-04-23 05:53 | 36.80152 | 5.95294 | 25002 ft | 410 kts | 74° |
| 2026-04-23 05:54 | 36.80714 | 5.98789 | 24773 ft | 415 kts | 76° |
| 2026-04-23 05:54 | 36.81236 | 6.02377 | 24530 ft | 421 kts | 76° |
| 2026-04-23 05:54 | 36.81709 | 6.05986 | 23926 ft | 423 kts | 78° |
| 2026-04-23 05:54 | 36.82142 | 6.09618 | 23427 ft | 422 kts | 79° |
| 2026-04-23 05:55 | 36.82545 | 6.13246 | 23288 ft | 423 kts | 79° |
| 2026-04-23 05:55 | 36.82934 | 6.16874 | 23086 ft | 418 kts | 79° |
| 2026-04-23 05:55 | 36.83312 | 6.20459 | 22477 ft | 417 kts | 79° |
| 2026-04-23 05:55 | 36.83687 | 6.24040 | 21773 ft | 415 kts | 79° |
| 2026-04-23 05:56 | 36.84060 | 6.27596 | 21125 ft | 413 kts | 79° |
| 2026-04-23 05:56 | 36.84430 | 6.31132 | 20550 ft | 409 kts | 79° |
| 2026-04-23 05:56 | 36.84796 | 6.34634 | 20003 ft | 405 kts | 79° |
| 2026-04-23 05:56 | 36.85158 | 6.38102 | 19459 ft | 401 kts | 79° |
| 2026-04-23 05:57 | 36.85517 | 6.41540 | 18937 ft | 397 kts | 79° |
| 2026-04-23 05:57 | 36.85873 | 6.44948 | 18418 ft | 394 kts | 79° |
| 2026-04-23 05:57 | 36.86225 | 6.48330 | 17809 ft | 391 kts | 79° |
| 2026-04-23 05:57 | 36.86571 | 6.51675 | 17266 ft | 387 kts | 79° |
| 2026-04-23 05:58 | 36.86913 | 6.54988 | 16759 ft | 382 kts | 79° |
| 2026-04-23 05:58 | 36.87250 | 6.58264 | 16244 ft | 378 kts | 79° |
| 2026-04-23 05:58 | 36.87584 | 6.61513 | 15731 ft | 375 kts | 79° |
| 2026-04-23 05:58 | 36.87913 | 6.64720 | 15213 ft | 371 kts | 79° |
| 2026-04-23 05:59 | 36.88235 | 6.67866 | 14680 ft | 368 kts | 79° |
| 2026-04-23 05:59 | 36.88557 | 6.71018 | 14211 ft | 363 kts | 79° |
| 2026-04-23 05:59 | 36.88874 | 6.74139 | 13658 ft | 361 kts | 79° |
| 2026-04-23 05:59 | 36.89189 | 6.77241 | 13112 ft | 358 kts | 79° |
| 2026-04-23 06:00 | 36.89499 | 6.80305 | 12602 ft | 355 kts | 79° |
| 2026-04-23 06:00 | 36.89807 | 6.83348 | 12082 ft | 352 kts | 79° |
| 2026-04-23 06:00 | 36.90111 | 6.86366 | 11601 ft | 348 kts | 79° |
| 2026-04-23 06:00 | 36.90413 | 6.89353 | 11127 ft | 345 kts | 80° |
| 2026-04-23 06:01 | 36.90710 | 6.92314 | 10635 ft | 342 kts | 80° |
| 2026-04-23 06:01 | 36.91003 | 6.95250 | 10152 ft | 339 kts | 80° |
| 2026-04-23 06:01 | 36.91293 | 6.98161 | 9648 ft | 336 kts | 81° |
| 2026-04-23 06:01 | 36.91580 | 7.01050 | 9116 ft | 334 kts | 81° |
| 2026-04-23 06:02 | 36.91865 | 7.03919 | 8595 ft | 332 kts | 81° |
| 2026-04-23 06:02 | 36.92140 | 7.06773 | 8087 ft | 330 kts | 82° |
| 2026-04-23 06:02 | 36.92379 | 7.09594 | 7789 ft | 321 kts | 82° |
| 2026-04-23 06:02 | 36.92603 | 7.12337 | 7543 ft | 314 kts | 83° |
| 2026-04-23 06:03 | 36.92898 | 7.15002 | 7285 ft | 305 kts | 77° |
| 2026-04-23 06:03 | 36.93374 | 7.17547 | 7042 ft | 297 kts | 74° |
| 2026-04-23 06:03 | 36.93909 | 7.20002 | 6802 ft | 290 kts | 73° |
| 2026-04-23 06:03 | 36.94450 | 7.22405 | 6559 ft | 284 kts | 73° |
| 2026-04-23 06:04 | 36.94988 | 7.24755 | 6308 ft | 278 kts | 72° |
| 2026-04-23 06:04 | 36.95757 | 7.26943 | 6040 ft | 273 kts | 60° |
| 2026-04-23 06:04 | 36.96688 | 7.28985 | 5799 ft | 268 kts | 59° |
| 2026-04-23 06:04 | 36.97574 | 7.31014 | 5548 ft | 264 kts | 61° |
| 2026-04-23 06:05 | 36.98403 | 7.33047 | 5301 ft | 261 kts | 62° |
| 2026-04-23 06:05 | 36.99215 | 7.35073 | 5060 ft | 261 kts | 63° |
| 2026-04-23 06:05 | 37.00033 | 7.37098 | 4821 ft | 261 kts | 63° |
| 2026-04-23 06:05 | 37.00851 | 7.39117 | 4566 ft | 260 kts | 63° |
| 2026-04-23 06:06 | 37.01666 | 7.41129 | 4318 ft | 259 kts | 63° |
| 2026-04-23 06:06 | 37.02399 | 7.43182 | 4041 ft | 259 kts | 77° |
| 2026-04-23 06:06 | 37.02551 | 7.45414 | 3824 ft | 255 kts | 88° |
| 2026-04-23 06:06 | 37.02679 | 7.47619 | 3574 ft | 254 kts | 84° |
| 2026-04-23 06:07 | 37.02883 | 7.49803 | 3369 ft | 251 kts | 83° |
| 2026-04-23 06:07 | 37.03100 | 7.51941 | 3391 ft | 246 kts | 83° |
| 2026-04-23 06:07 | 37.03321 | 7.54070 | 3379 ft | 247 kts | 83° |
| 2026-04-23 06:07 | 37.03546 | 7.56221 | 3384 ft | 251 kts | 83° |
| 2026-04-23 06:08 | 37.03775 | 7.58405 | 3397 ft | 255 kts | 83° |
| 2026-04-23 06:08 | 37.03998 | 7.60603 | 3392 ft | 254 kts | 82° |
| 2026-04-23 06:08 | 37.04211 | 7.62799 | 3390 ft | 254 kts | 83° |
| 2026-04-23 06:08 | 37.04421 | 7.64985 | 3380 ft | 253 kts | 83° |
| 2026-04-23 06:09 | 37.04628 | 7.67137 | 3329 ft | 244 kts | 83° |
| 2026-04-23 06:09 | 37.04826 | 7.69204 | 3246 ft | 234 kts | 83° |
| 2026-04-23 06:09 | 37.05016 | 7.71187 | 3166 ft | 225 kts | 82° |
| 2026-04-23 06:09 | 37.05198 | 7.73087 | 3067 ft | 214 kts | 83° |
| 2026-04-23 06:10 | 37.05368 | 7.74854 | 2964 ft | 201 kts | 83° |
| 2026-04-23 06:10 | 37.05530 | 7.76527 | 2858 ft | 186 kts | 83° |
| 2026-04-23 06:10 | 37.05686 | 7.78123 | 2602 ft | 184 kts | 83° |
| 2026-04-23 06:10 | 37.05769 | 7.79677 | 2520 ft | 173 kts | 90° |
| 2026-04-23 06:11 | 37.05728 | 7.81113 | 2507 ft | 162 kts | 92° |
| 2026-04-23 06:11 | 37.05669 | 7.82532 | 2536 ft | 165 kts | 95° |
| 2026-04-23 06:11 | 37.05269 | 7.83860 | 2485 ft | 164 kts | 137° |
| 2026-04-23 06:11 | 37.04252 | 7.84223 | 2500 ft | 156 kts | 191° |
| 2026-04-23 06:12 | 37.03197 | 7.83836 | 2518 ft | 159 kts | 182° |
| 2026-04-23 06:12 | 37.02127 | 7.83988 | 2526 ft | 157 kts | 167° |
| 2026-04-23 06:12 | 36.99992 | 7.83522 | 2495 ft | 157 kts | 184° |
| 2026-04-23 06:13 | 36.98921 | 7.83500 | 2525 ft | 157 kts | 179° |
| 2026-04-23 06:13 | 36.97816 | 7.83327 | 2520 ft | 161 kts | 186° |
| 2026-04-23 06:13 | 36.96712 | 7.83126 | 2502 ft | 159 kts | 186° |
| 2026-04-23 06:13 | 36.95620 | 7.82953 | 2499 ft | 157 kts | 186° |
| 2026-04-23 06:14 | 36.94525 | 7.82787 | 2449 ft | 160 kts | 186° |
| 2026-04-23 06:14 | 36.93425 | 7.82621 | 2340 ft | 158 kts | 186° |
| 2026-04-23 06:14 | 36.92369 | 7.82461 | 2185 ft | 148 kts | 185° |
| 2026-04-23 06:14 | 36.91381 | 7.82312 | 1990 ft | 139 kts | 185° |
| 2026-04-23 06:15 | 36.90431 | 7.82169 | 1740 ft | 139 kts | 184° |
| 2026-04-23 06:15 | 36.89465 | 7.82023 | 1373 ft | 139 kts | 184° |
| 2026-04-23 06:15 | 36.88520 | 7.81881 | 1096 ft | 139 kts | 184° |
| 2026-04-23 06:15 | 36.87551 | 7.81735 | 685 ft | 140 kts | 185° |
| 2026-04-23 06:16 | 36.86607 | 7.81591 | 477 ft | 128 kts | 185° |
| 2026-04-23 06:16 | 36.85719 | 7.81460 | 414 ft | 143 kts | 185° |
| 2026-04-23 06:16 | 36.84687 | 7.81322 | 110 ft | 144 kts | 188° |
| 2026-04-23 06:16 | 36.83774 | 7.81167 | 5 ft | 123 kts | 187° |
| 2026-04-23 06:17 | 36.83043 | 7.81058 | 7 ft | 88 kts | 187° |
| 2026-04-23 06:17 | 36.82668 | 7.81002 | 6 ft | 45 kts | 187° |
| 2026-04-23 06:17 | 36.82478 | 7.80973 | 5 ft | 17 kts | 187° |
| 2026-04-23 06:17 | 36.82359 | 7.80956 | 4 ft | 17 kts | 184° |
| 2026-04-23 06:18 | 36.82314 | 7.81063 | 4 ft | 17 kts | 64° |
| 2026-04-23 06:18 | 36.82380 | 7.81181 | 3 ft | 16 kts | 52° |
| 2026-04-23 06:18 | 36.82449 | 7.81290 | 4 ft | 16 kts | 52° |
| 2026-04-23 06:18 | 36.82502 | 7.81395 | 5 ft | 14 kts | 86° |
| 2026-04-23 06:19 | 36.82471 | 7.81457 | 4 ft | 5 kts | 143° |
| 2026-04-23 06:19 | 36.82459 | 7.81468 | 4 ft | 0 kts | 144° |
| 2026-04-23 06:20 | 36.82458 | 7.81469 | 4 ft | 1 kts | 144° |
| 2026-04-23 06:20 | 36.82435 | 7.81491 | 4 ft | 7 kts | 142° |
| 2026-04-23 06:20 | 36.82399 | 7.81536 | 5 ft | 7 kts | 120° |
| 2026-04-23 06:20 | 36.82395 | 7.81601 | 6 ft | 9 kts | 66° |
| 2026-04-23 06:21 | 36.82438 | 7.81671 | 3 ft | 11 kts | 51° |
| 2026-04-23 06:21 | 36.82487 | 7.81747 | 3 ft | 11 kts | 51° |
| 2026-04-23 06:21 | 36.82533 | 7.81821 | 3 ft | 11 kts | 52° |
| 2026-04-23 06:21 | 36.82579 | 7.81893 | 3 ft | 10 kts | 50° |
| 2026-04-23 06:22 | 36.82594 | 7.81954 | 3 ft | 3 kts | 120° |
| 2026-04-23 06:22 | 36.82581 | 7.81969 | 4 ft | 2 kts | 141° |
| 2026-04-23 06:22 | 36.82568 | 7.81982 | 3 ft | 2 kts | 142° |
| 2026-04-23 06:22 | 36.82555 | 7.81994 | 3 ft | 2 kts | 142° |
| 2026-04-23 06:23 | 36.82543 | 7.82006 | 3 ft | 2 kts | 142° |
| 2026-04-23 06:23 | 36.82537 | 7.82021 | 3 ft | 1 kts | 89° |
| 2026-04-23 06:23 | 36.82543 | 7.82027 | 3 ft | 1 kts | 27° |
| 2026-04-23 06:23 | 36.82551 | 7.82024 | 3 ft | 2 kts | 346° |
| 2026-04-23 06:24 | 36.82557 | 7.82024 | 3 ft | 0 kts | 360° |